sensor_id;sensor_type;location;lat;lon;timestamp;P1;durP1;ratioP1;P2;durP2;ratioP2
28587;SDS011;15787;49.662;10.162;2023-03-13T00:01:50;9.50;;;2.67;;
28587;SDS011;15787;49.662;10.162;2023-03-13T00:04:23;10.73;;;2.20;;
28587;SDS011;15787;49.662;10.162;2023-03-13T00:06:56;10.40;;;2.38;;
28587;SDS011;15787;49.662;10.162;2023-03-13T00:09:30;11.80;;;2.40;;
28587;SDS011;15787;49.662;10.162;2023-03-13T00:12:03;11.82;;;2.55;;
28587;SDS011;15787;49.662;10.162;2023-03-13T00:14:37;9.25;;;2.38;;
28587;SDS011;15787;49.662;10.162;2023-03-13T00:17:11;13.48;;;2.60;;
28587;SDS011;15787;49.662;10.162;2023-03-13T00:19:44;13.18;;;3.22;;
28587;SDS011;15787;49.662;10.162;2023-03-13T00:22:17;11.05;;;2.25;;
28587;SDS011;15787;49.662;10.162;2023-03-13T00:24:50;11.88;;;2.30;;
28587;SDS011;15787;49.662;10.162;2023-03-13T00:27:23;13.32;;;2.58;;
28587;SDS011;15787;49.662;10.162;2023-03-13T00:29:55;15.75;;;2.60;;
28587;SDS011;15787;49.662;10.162;2023-03-13T00:32:30;15.90;;;2.40;;
28587;SDS011;15787;49.662;10.162;2023-03-13T00:35:03;11.10;;;2.50;;
28587;SDS011;15787;49.662;10.162;2023-03-13T00:37:36;14.57;;;2.00;;
28587;SDS011;15787;49.662;10.162;2023-03-13T00:40:09;11.63;;;2.03;;
28587;SDS011;15787;49.662;10.162;2023-03-13T00:42:43;11.27;;;2.30;;
28587;SDS011;15787;49.662;10.162;2023-03-13T00:45:16;13.32;;;2.58;;
28587;SDS011;15787;49.662;10.162;2023-03-13T00:47:51;6.53;;;1.95;;
28587;SDS011;15787;49.662;10.162;2023-03-13T00:50:24;15.02;;;2.60;;
28587;SDS011;15787;49.662;10.162;2023-03-13T00:52:57;10.45;;;2.05;;
28587;SDS011;15787;49.662;10.162;2023-03-13T00:55:31;13.73;;;2.60;;
28587;SDS011;15787;49.662;10.162;2023-03-13T00:58:04;11.02;;;2.28;;
28587;SDS011;15787;49.662;10.162;2023-03-13T01:00:37;10.77;;;2.10;;
28587;SDS011;15787;49.662;10.162;2023-03-13T01:03:11;16.40;;;2.53;;
28587;SDS011;15787;49.662;10.162;2023-03-13T01:05:44;12.63;;;2.22;;
28587;SDS011;15787;49.662;10.162;2023-03-13T01:08:26;14.82;;;2.72;;
28587;SDS011;15787;49.662;10.162;2023-03-13T01:11:01;11.82;;;2.08;;
28587;SDS011;15787;49.662;10.162;2023-03-13T01:13:36;9.38;;;2.40;;
28587;SDS011;15787;49.662;10.162;2023-03-13T01:16:10;11.15;;;2.10;;
28587;SDS011;15787;49.662;10.162;2023-03-13T01:18:47;15.68;;;2.90;;
28587;SDS011;15787;49.662;10.162;2023-03-13T01:21:22;10.43;;;2.42;;
28587;SDS011;15787;49.662;10.162;2023-03-13T01:23:56;14.07;;;2.22;;
28587;SDS011;15787;49.662;10.162;2023-03-13T01:26:29;7.95;;;1.90;;
28587;SDS011;15787;49.662;10.162;2023-03-13T01:29:03;8.35;;;1.90;;
28587;SDS011;15787;49.662;10.162;2023-03-13T01:31:36;9.32;;;1.85;;
28587;SDS011;15787;49.662;10.162;2023-03-13T01:34:12;8.90;;;2.75;;
28587;SDS011;15787;49.662;10.162;2023-03-13T01:36:45;15.82;;;2.15;;
28587;SDS011;15787;49.662;10.162;2023-03-13T01:39:20;12.70;;;2.53;;
28587;SDS011;15787;49.662;10.162;2023-03-13T01:41:53;11.85;;;2.15;;
28587;SDS011;15787;49.662;10.162;2023-03-13T01:44:26;10.45;;;2.60;;
28587;SDS011;15787;49.662;10.162;2023-03-13T01:47:00;15.02;;;2.22;;
28587;SDS011;15787;49.662;10.162;2023-03-13T01:49:51;10.20;;;1.87;;
28587;SDS011;15787;49.662;10.162;2023-03-13T01:52:35;11.30;;;1.92;;
28587;SDS011;15787;49.662;10.162;2023-03-13T01:55:17;10.23;;;2.55;;
28587;SDS011;15787;49.662;10.162;2023-03-13T01:57:53;12.30;;;2.28;;
28587;SDS011;15787;49.662;10.162;2023-03-13T02:00:28;13.95;;;3.28;;
28587;SDS011;15787;49.662;10.162;2023-03-13T02:03:05;10.70;;;1.90;;
28587;SDS011;15787;49.662;10.162;2023-03-13T02:05:44;12.75;;;1.88;;
28587;SDS011;15787;49.662;10.162;2023-03-13T02:08:21;8.77;;;2.42;;
28587;SDS011;15787;49.662;10.162;2023-03-13T02:10:59;9.60;;;2.83;;
28587;SDS011;15787;49.662;10.162;2023-03-13T02:13:39;16.77;;;3.22;;
28587;SDS011;15787;49.662;10.162;2023-03-13T02:16:12;16.23;;;2.60;;
28587;SDS011;15787;49.662;10.162;2023-03-13T02:18:45;21.80;;;3.25;;
28587;SDS011;15787;49.662;10.162;2023-03-13T02:21:24;14.40;;;2.72;;
28587;SDS011;15787;49.662;10.162;2023-03-13T02:24:10;13.40;;;2.15;;
28587;SDS011;15787;49.662;10.162;2023-03-13T02:26:51;15.60;;;2.15;;
28587;SDS011;15787;49.662;10.162;2023-03-13T02:29:24;12.60;;;2.20;;
28587;SDS011;15787;49.662;10.162;2023-03-13T02:31:57;9.77;;;1.80;;
28587;SDS011;15787;49.662;10.162;2023-03-13T02:34:31;8.93;;;1.85;;
28587;SDS011;15787;49.662;10.162;2023-03-13T02:37:07;13.25;;;2.35;;
28587;SDS011;15787;49.662;10.162;2023-03-13T02:39:45;13.23;;;2.35;;
28587;SDS011;15787;49.662;10.162;2023-03-13T02:42:23;13.57;;;2.45;;
28587;SDS011;15787;49.662;10.162;2023-03-13T02:44:56;10.45;;;1.63;;
28587;SDS011;15787;49.662;10.162;2023-03-13T02:47:30;10.15;;;2.47;;
28587;SDS011;15787;49.662;10.162;2023-03-13T02:50:03;10.82;;;2.38;;
28587;SDS011;15787;49.662;10.162;2023-03-13T02:52:37;14.88;;;2.47;;
28587;SDS011;15787;49.662;10.162;2023-03-13T02:55:17;8.63;;;2.08;;
28587;SDS011;15787;49.662;10.162;2023-03-13T02:57:55;11.50;;;2.72;;
28587;SDS011;15787;49.662;10.162;2023-03-13T03:00:28;9.95;;;2.67;;
28587;SDS011;15787;49.662;10.162;2023-03-13T03:03:01;12.00;;;2.00;;
28587;SDS011;15787;49.662;10.162;2023-03-13T03:05:34;12.07;;;2.45;;
28587;SDS011;15787;49.662;10.162;2023-03-13T03:08:07;11.57;;;2.38;;
28587;SDS011;15787;49.662;10.162;2023-03-13T03:10:40;15.63;;;2.25;;
28587;SDS011;15787;49.662;10.162;2023-03-13T03:13:15;12.75;;;3.28;;
28587;SDS011;15787;49.662;10.162;2023-03-13T03:15:48;9.10;;;1.85;;
28587;SDS011;15787;49.662;10.162;2023-03-13T03:18:21;11.85;;;2.67;;
28587;SDS011;15787;49.662;10.162;2023-03-13T03:20:54;10.07;;;2.95;;
28587;SDS011;15787;49.662;10.162;2023-03-13T03:23:27;14.25;;;2.55;;
28587;SDS011;15787;49.662;10.162;2023-03-13T03:26:00;11.40;;;1.90;;
28587;SDS011;15787;49.662;10.162;2023-03-13T03:28:36;16.13;;;2.00;;
28587;SDS011;15787;49.662;10.162;2023-03-13T03:31:13;8.48;;;2.13;;
28587;SDS011;15787;49.662;10.162;2023-03-13T03:33:47;8.88;;;2.88;;
28587;SDS011;15787;49.662;10.162;2023-03-13T03:36:22;10.40;;;1.98;;
28587;SDS011;15787;49.662;10.162;2023-03-13T03:38:56;9.43;;;1.88;;
28587;SDS011;15787;49.662;10.162;2023-03-13T03:41:30;8.48;;;1.80;;
28587;SDS011;15787;49.662;10.162;2023-03-13T03:44:05;11.20;;;2.15;;
28587;SDS011;15787;49.662;10.162;2023-03-13T03:46:51;11.50;;;1.88;;
28587;SDS011;15787;49.662;10.162;2023-03-13T03:49:25;12.45;;;2.50;;
28587;SDS011;15787;49.662;10.162;2023-03-13T03:51:58;7.53;;;1.67;;
28587;SDS011;15787;49.662;10.162;2023-03-13T03:54:37;8.15;;;2.53;;
28587;SDS011;15787;49.662;10.162;2023-03-13T03:57:10;11.15;;;2.13;;
28587;SDS011;15787;49.662;10.162;2023-03-13T03:59:47;12.55;;;2.28;;
28587;SDS011;15787;49.662;10.162;2023-03-13T04:02:20;9.00;;;1.80;;
28587;SDS011;15787;49.662;10.162;2023-03-13T04:04:53;11.80;;;1.67;;
28587;SDS011;15787;49.662;10.162;2023-03-13T04:07:33;12.10;;;2.00;;
28587;SDS011;15787;49.662;10.162;2023-03-13T04:10:06;9.63;;;1.95;;
28587;SDS011;15787;49.662;10.162;2023-03-13T04:12:46;12.95;;;2.10;;
28587;SDS011;15787;49.662;10.162;2023-03-13T04:15:21;12.57;;;1.88;;
28587;SDS011;15787;49.662;10.162;2023-03-13T04:17:54;15.27;;;2.83;;
28587;SDS011;15787;49.662;10.162;2023-03-13T04:20:27;9.75;;;2.17;;
28587;SDS011;15787;49.662;10.162;2023-03-13T04:23:00;8.73;;;1.88;;
28587;SDS011;15787;49.662;10.162;2023-03-13T04:25:33;12.57;;;2.42;;
28587;SDS011;15787;49.662;10.162;2023-03-13T04:28:08;8.25;;;2.08;;
28587;SDS011;15787;49.662;10.162;2023-03-13T04:30:48;10.10;;;1.85;;
28587;SDS011;15787;49.662;10.162;2023-03-13T04:33:34;9.63;;;1.55;;
28587;SDS011;15787;49.662;10.162;2023-03-13T04:36:43;11.95;;;2.00;;
28587;SDS011;15787;49.662;10.162;2023-03-13T04:39:48;10.48;;;1.77;;
28587;SDS011;15787;49.662;10.162;2023-03-13T04:42:41;6.60;;;1.20;;
28587;SDS011;15787;49.662;10.162;2023-03-13T04:45:35;10.27;;;1.60;;
28587;SDS011;15787;49.662;10.162;2023-03-13T04:48:31;8.07;;;1.52;;
28587;SDS011;15787;49.662;10.162;2023-03-13T04:51:17;5.30;;;1.38;;
28587;SDS011;15787;49.662;10.162;2023-03-13T04:54:04;4.95;;;1.65;;
28587;SDS011;15787;49.662;10.162;2023-03-13T04:56:49;5.03;;;1.15;;
28587;SDS011;15787;49.662;10.162;2023-03-13T04:59:45;5.68;;;1.30;;
28587;SDS011;15787;49.662;10.162;2023-03-13T05:02:20;6.82;;;1.30;;
28587;SDS011;15787;49.662;10.162;2023-03-13T05:05:14;9.38;;;1.63;;
28587;SDS011;15787;49.662;10.162;2023-03-13T05:08:15;4.93;;;1.02;;
28587;SDS011;15787;49.662;10.162;2023-03-13T05:11:08;7.97;;;1.55;;
28587;SDS011;15787;49.662;10.162;2023-03-13T05:14:17;3.53;;;2.63;;
28587;SDS011;15787;49.662;10.162;2023-03-13T05:17:19;0.00;;;0.00;;
28587;SDS011;15787;49.662;10.162;2023-03-13T05:22:57;0.00;;;0.00;;
28587;SDS011;15787;49.662;10.162;2023-03-13T05:25:48;0.05;;;0.05;;
28587;SDS011;15787;49.662;10.162;2023-03-13T05:28:37;0.00;;;0.00;;
28587;SDS011;15787;49.662;10.162;2023-03-13T05:31:19;0.00;;;0.00;;
28587;SDS011;15787;49.662;10.162;2023-03-13T05:33:52;0.10;;;0.10;;
28587;SDS011;15787;49.662;10.162;2023-03-13T05:36:43;0.10;;;0.10;;
28587;SDS011;15787;49.662;10.162;2023-03-13T05:39:36;2.00;;;1.40;;
28587;SDS011;15787;49.662;10.162;2023-03-13T05:42:27;0.08;;;0.08;;
28587;SDS011;15787;49.662;10.162;2023-03-13T05:45:23;0.00;;;0.00;;
28587;SDS011;15787;49.662;10.162;2023-03-13T05:48:22;0.00;;;0.00;;
28587;SDS011;15787;49.662;10.162;2023-03-13T05:51:07;0.00;;;0.00;;
28587;SDS011;15787;49.662;10.162;2023-03-13T05:54:12;0.03;;;0.03;;
28587;SDS011;15787;49.662;10.162;2023-03-13T05:57:07;0.00;;;0.00;;
28587;SDS011;15787;49.662;10.162;2023-03-13T06:00:07;0.00;;;0.00;;
28587;SDS011;15787;49.662;10.162;2023-03-13T06:02:49;0.00;;;0.00;;
28587;SDS011;15787;49.662;10.162;2023-03-13T06:05:28;0.00;;;0.00;;
28587;SDS011;15787;49.662;10.162;2023-03-13T06:08:02;0.00;;;0.00;;
28587;SDS011;15787;49.662;10.162;2023-03-13T06:10:36;0.00;;;0.00;;
28587;SDS011;15787;49.662;10.162;2023-03-13T06:13:10;0.00;;;0.00;;
28587;SDS011;15787;49.662;10.162;2023-03-13T06:15:53;0.00;;;0.00;;
28587;SDS011;15787;49.662;10.162;2023-03-13T06:18:48;0.00;;;0.00;;
28587;SDS011;15787;49.662;10.162;2023-03-13T06:21:21;4.15;;;0.68;;
28587;SDS011;15787;49.662;10.162;2023-03-13T06:23:54;0.00;;;0.00;;
28587;SDS011;15787;49.662;10.162;2023-03-13T06:26:27;0.00;;;0.00;;
28587;SDS011;15787;49.662;10.162;2023-03-13T06:29:02;0.10;;;0.10;;
28587;SDS011;15787;49.662;10.162;2023-03-13T06:31:34;0.00;;;0.00;;
28587;SDS011;15787;49.662;10.162;2023-03-13T06:34:09;0.00;;;0.00;;
28587;SDS011;15787;49.662;10.162;2023-03-13T06:36:43;0.00;;;0.00;;
28587;SDS011;15787;49.662;10.162;2023-03-13T06:39:15;0.00;;;0.00;;
28587;SDS011;15787;49.662;10.162;2023-03-13T06:41:49;0.08;;;0.08;;
28587;SDS011;15787;49.662;10.162;2023-03-13T06:44:23;0.00;;;0.00;;
28587;SDS011;15787;49.662;10.162;2023-03-13T06:46:56;0.00;;;0.00;;
28587;SDS011;15787;49.662;10.162;2023-03-13T06:49:29;0.05;;;0.05;;
28587;SDS011;15787;49.662;10.162;2023-03-13T06:52:02;0.00;;;0.00;;
28587;SDS011;15787;49.662;10.162;2023-03-13T06:54:35;0.00;;;0.00;;
28587;SDS011;15787;49.662;10.162;2023-03-13T06:57:09;0.00;;;0.00;;
28587;SDS011;15787;49.662;10.162;2023-03-13T06:59:43;0.08;;;0.08;;
28587;SDS011;15787;49.662;10.162;2023-03-13T07:02:16;0.00;;;0.00;;
28587;SDS011;15787;49.662;10.162;2023-03-13T07:04:49;0.25;;;0.25;;
28587;SDS011;15787;49.662;10.162;2023-03-13T07:07:22;0.00;;;0.00;;
28587;SDS011;15787;49.662;10.162;2023-03-13T07:10:02;0.00;;;0.00;;
28587;SDS011;15787;49.662;10.162;2023-03-13T07:12:36;0.00;;;0.00;;
28587;SDS011;15787;49.662;10.162;2023-03-13T07:15:11;0.00;;;0.00;;
28587;SDS011;15787;49.662;10.162;2023-03-13T07:17:44;0.00;;;0.00;;
28587;SDS011;15787;49.662;10.162;2023-03-13T07:20:16;0.00;;;0.00;;
28587;SDS011;15787;49.662;10.162;2023-03-13T07:22:50;0.05;;;0.05;;
28587;SDS011;15787;49.662;10.162;2023-03-13T07:25:24;0.00;;;0.00;;
28587;SDS011;15787;49.662;10.162;2023-03-13T07:27:57;0.00;;;0.00;;
28587;SDS011;15787;49.662;10.162;2023-03-13T07:30:32;0.00;;;0.00;;
28587;SDS011;15787;49.662;10.162;2023-03-13T07:33:06;0.00;;;0.00;;
28587;SDS011;15787;49.662;10.162;2023-03-13T07:35:38;0.00;;;0.00;;
28587;SDS011;15787;49.662;10.162;2023-03-13T07:38:12;0.00;;;0.00;;
28587;SDS011;15787;49.662;10.162;2023-03-13T07:40:48;0.00;;;0.00;;
28587;SDS011;15787;49.662;10.162;2023-03-13T07:43:22;0.00;;;0.00;;
28587;SDS011;15787;49.662;10.162;2023-03-13T07:45:57;0.00;;;0.00;;
28587;SDS011;15787;49.662;10.162;2023-03-13T07:48:31;0.00;;;0.00;;
28587;SDS011;15787;49.662;10.162;2023-03-13T07:51:06;0.00;;;0.00;;
28587;SDS011;15787;49.662;10.162;2023-03-13T07:53:40;0.00;;;0.00;;
28587;SDS011;15787;49.662;10.162;2023-03-13T07:56:14;0.00;;;0.00;;
28587;SDS011;15787;49.662;10.162;2023-03-13T07:58:49;0.00;;;0.00;;
28587;SDS011;15787;49.662;10.162;2023-03-13T08:01:24;0.00;;;0.00;;
28587;SDS011;15787;49.662;10.162;2023-03-13T08:04:01;0.00;;;0.00;;
28587;SDS011;15787;49.662;10.162;2023-03-13T08:06:36;0.00;;;0.00;;
28587;SDS011;15787;49.662;10.162;2023-03-13T08:09:10;0.00;;;0.00;;
28587;SDS011;15787;49.662;10.162;2023-03-13T08:11:43;0.00;;;0.00;;
28587;SDS011;15787;49.662;10.162;2023-03-13T08:14:17;0.00;;;0.00;;
28587;SDS011;15787;49.662;10.162;2023-03-13T08:16:51;0.00;;;0.00;;
28587;SDS011;15787;49.662;10.162;2023-03-13T08:19:24;0.00;;;0.00;;
28587;SDS011;15787;49.662;10.162;2023-03-13T08:21:57;0.00;;;0.00;;
28587;SDS011;15787;49.662;10.162;2023-03-13T08:24:30;0.00;;;0.00;;
28587;SDS011;15787;49.662;10.162;2023-03-13T08:27:03;0.00;;;0.00;;
28587;SDS011;15787;49.662;10.162;2023-03-13T08:29:36;0.00;;;0.00;;
28587;SDS011;15787;49.662;10.162;2023-03-13T08:32:10;0.00;;;0.00;;
28587;SDS011;15787;49.662;10.162;2023-03-13T08:34:44;0.00;;;0.00;;
28587;SDS011;15787;49.662;10.162;2023-03-13T08:37:17;0.00;;;0.00;;
28587;SDS011;15787;49.662;10.162;2023-03-13T08:39:49;0.00;;;0.00;;
28587;SDS011;15787;49.662;10.162;2023-03-13T08:42:24;0.00;;;0.00;;
28587;SDS011;15787;49.662;10.162;2023-03-13T08:44:57;0.00;;;0.00;;
28587;SDS011;15787;49.662;10.162;2023-03-13T08:47:31;0.00;;;0.00;;
28587;SDS011;15787;49.662;10.162;2023-03-13T08:50:05;0.00;;;0.00;;
28587;SDS011;15787;49.662;10.162;2023-03-13T08:52:39;0.00;;;0.00;;
28587;SDS011;15787;49.662;10.162;2023-03-13T08:55:12;0.03;;;0.03;;
28587;SDS011;15787;49.662;10.162;2023-03-13T08:57:45;0.00;;;0.00;;
28587;SDS011;15787;49.662;10.162;2023-03-13T09:00:18;0.00;;;0.00;;
28587;SDS011;15787;49.662;10.162;2023-03-13T09:02:53;0.80;;;0.80;;
28587;SDS011;15787;49.662;10.162;2023-03-13T09:05:28;4.95;;;1.95;;
28587;SDS011;15787;49.662;10.162;2023-03-13T09:08:01;0.00;;;0.00;;
28587;SDS011;15787;49.662;10.162;2023-03-13T09:10:35;0.00;;;0.00;;
28587;SDS011;15787;49.662;10.162;2023-03-13T09:13:08;0.00;;;0.00;;
28587;SDS011;15787;49.662;10.162;2023-03-13T09:15:41;0.13;;;0.13;;
28587;SDS011;15787;49.662;10.162;2023-03-13T09:18:15;0.00;;;0.00;;
28587;SDS011;15787;49.662;10.162;2023-03-13T09:20:49;0.00;;;0.00;;
28587;SDS011;15787;49.662;10.162;2023-03-13T09:23:22;0.00;;;0.00;;
28587;SDS011;15787;49.662;10.162;2023-03-13T09:25:56;0.00;;;0.00;;
28587;SDS011;15787;49.662;10.162;2023-03-13T09:28:29;0.03;;;0.03;;
28587;SDS011;15787;49.662;10.162;2023-03-13T09:31:05;0.00;;;0.00;;
28587;SDS011;15787;49.662;10.162;2023-03-13T09:33:41;0.00;;;0.00;;
28587;SDS011;15787;49.662;10.162;2023-03-13T09:36:16;0.00;;;0.00;;
28587;SDS011;15787;49.662;10.162;2023-03-13T09:38:53;0.00;;;0.00;;
28587;SDS011;15787;49.662;10.162;2023-03-13T09:41:29;0.00;;;0.00;;
28587;SDS011;15787;49.662;10.162;2023-03-13T09:44:08;0.00;;;0.00;;
28587;SDS011;15787;49.662;10.162;2023-03-13T09:46:47;0.00;;;0.00;;
28587;SDS011;15787;49.662;10.162;2023-03-13T09:49:30;0.00;;;0.00;;
28587;SDS011;15787;49.662;10.162;2023-03-13T09:52:10;0.00;;;0.00;;
28587;SDS011;15787;49.662;10.162;2023-03-13T09:54:47;0.88;;;0.88;;
28587;SDS011;15787;49.662;10.162;2023-03-13T09:57:24;0.00;;;0.00;;
28587;SDS011;15787;49.662;10.162;2023-03-13T10:00:04;0.00;;;0.00;;
28587;SDS011;15787;49.662;10.162;2023-03-13T10:02:45;0.00;;;0.00;;
28587;SDS011;15787;49.662;10.162;2023-03-13T10:05:33;0.00;;;0.00;;
28587;SDS011;15787;49.662;10.162;2023-03-13T10:08:08;0.03;;;0.03;;
28587;SDS011;15787;49.662;10.162;2023-03-13T10:10:47;0.00;;;0.00;;
28587;SDS011;15787;49.662;10.162;2023-03-13T10:13:26;0.00;;;0.00;;
28587;SDS011;15787;49.662;10.162;2023-03-13T10:16:06;0.00;;;0.00;;
28587;SDS011;15787;49.662;10.162;2023-03-13T10:18:42;3.92;;;0.85;;
28587;SDS011;15787;49.662;10.162;2023-03-13T10:21:19;1.77;;;1.00;;
28587;SDS011;15787;49.662;10.162;2023-03-13T10:23:54;4.45;;;1.08;;
28587;SDS011;15787;49.662;10.162;2023-03-13T10:26:34;4.63;;;2.00;;
28587;SDS011;15787;49.662;10.162;2023-03-13T10:29:19;1.60;;;0.80;;
28587;SDS011;15787;49.662;10.162;2023-03-13T10:31:55;4.05;;;1.40;;
28587;SDS011;15787;49.662;10.162;2023-03-13T10:34:44;4.13;;;0.90;;
28587;SDS011;15787;49.662;10.162;2023-03-13T10:37:23;1.80;;;1.20;;
28587;SDS011;15787;49.662;10.162;2023-03-13T10:40:09;3.25;;;1.30;;
28587;SDS011;15787;49.662;10.162;2023-03-13T10:42:45;1.50;;;0.80;;
28587;SDS011;15787;49.662;10.162;2023-03-13T10:45:19;1.67;;;0.73;;
28587;SDS011;15787;49.662;10.162;2023-03-13T10:47:56;2.75;;;0.95;;
28587;SDS011;15787;49.662;10.162;2023-03-13T10:50:33;5.95;;;1.30;;
28587;SDS011;15787;49.662;10.162;2023-03-13T10:53:15;2.88;;;1.10;;
28587;SDS011;15787;49.662;10.162;2023-03-13T10:55:53;1.70;;;0.80;;
28587;SDS011;15787;49.662;10.162;2023-03-13T10:58:32;1.98;;;0.82;;
28587;SDS011;15787;49.662;10.162;2023-03-13T11:01:16;7.57;;;1.83;;
28587;SDS011;15787;49.662;10.162;2023-03-13T11:03:53;2.67;;;0.90;;
28587;SDS011;15787;49.662;10.162;2023-03-13T11:06:28;4.25;;;1.40;;
28587;SDS011;15787;49.662;10.162;2023-03-13T11:09:09;2.50;;;1.05;;
28587;SDS011;15787;49.662;10.162;2023-03-13T11:11:45;2.95;;;0.90;;
28587;SDS011;15787;49.662;10.162;2023-03-13T11:14:20;2.00;;;0.95;;
28587;SDS011;15787;49.662;10.162;2023-03-13T11:16:54;1.98;;;0.77;;
28587;SDS011;15787;49.662;10.162;2023-03-13T11:19:48;2.13;;;1.00;;
28587;SDS011;15787;49.662;10.162;2023-03-13T11:22:32;4.93;;;1.30;;
28587;SDS011;15787;49.662;10.162;2023-03-13T11:25:18;2.60;;;1.00;;
28587;SDS011;15787;49.662;10.162;2023-03-13T11:27:57;1.95;;;1.23;;
28587;SDS011;15787;49.662;10.162;2023-03-13T11:30:44;1.50;;;0.90;;
28587;SDS011;15787;49.662;10.162;2023-03-13T11:33:28;3.15;;;1.02;;
28587;SDS011;15787;49.662;10.162;2023-03-13T11:36:13;1.90;;;1.00;;
28587;SDS011;15787;49.662;10.162;2023-03-13T11:38:52;2.13;;;1.00;;
28587;SDS011;15787;49.662;10.162;2023-03-13T11:41:30;2.75;;;1.20;;
28587;SDS011;15787;49.662;10.162;2023-03-13T11:44:17;2.63;;;0.90;;
28587;SDS011;15787;49.662;10.162;2023-03-13T11:47:03;7.18;;;1.02;;
28587;SDS011;15787;49.662;10.162;2023-03-13T11:52:50;2.88;;;1.10;;
28587;SDS011;15787;49.662;10.162;2023-03-13T11:55:45;3.67;;;1.17;;
28587;SDS011;15787;49.662;10.162;2023-03-13T12:01:33;4.00;;;0.90;;
28587;SDS011;15787;49.662;10.162;2023-03-13T12:04:12;3.10;;;1.25;;
28587;SDS011;15787;49.662;10.162;2023-03-13T12:06:49;6.00;;;1.20;;
28587;SDS011;15787;49.662;10.162;2023-03-13T12:09:27;3.03;;;1.08;;
28587;SDS011;15787;49.662;10.162;2023-03-13T12:12:08;2.35;;;1.02;;
28587;SDS011;15787;49.662;10.162;2023-03-13T12:14:51;2.33;;;1.00;;
28587;SDS011;15787;49.662;10.162;2023-03-13T12:17:30;4.75;;;1.50;;
28587;SDS011;15787;49.662;10.162;2023-03-13T12:20:07;4.82;;;1.25;;
28587;SDS011;15787;49.662;10.162;2023-03-13T12:22:47;1.67;;;1.08;;
28587;SDS011;15787;49.662;10.162;2023-03-13T12:25:24;2.90;;;1.40;;
28587;SDS011;15787;49.662;10.162;2023-03-13T12:28:03;3.33;;;1.20;;
28587;SDS011;15787;49.662;10.162;2023-03-13T12:30:51;3.70;;;1.15;;
28587;SDS011;15787;49.662;10.162;2023-03-13T12:33:31;2.83;;;1.20;;
28587;SDS011;15787;49.662;10.162;2023-03-13T12:36:11;2.60;;;1.10;;
28587;SDS011;15787;49.662;10.162;2023-03-13T12:38:52;2.78;;;1.40;;
28587;SDS011;15787;49.662;10.162;2023-03-13T12:41:29;3.75;;;1.10;;
28587;SDS011;15787;49.662;10.162;2023-03-13T12:44:09;2.97;;;0.93;;
28587;SDS011;15787;49.662;10.162;2023-03-13T12:46:50;3.22;;;1.27;;
28587;SDS011;15787;49.662;10.162;2023-03-13T12:49:42;5.10;;;1.00;;
28587;SDS011;15787;49.662;10.162;2023-03-13T12:55:48;3.05;;;1.00;;
28587;SDS011;15787;49.662;10.162;2023-03-13T13:01:18;3.15;;;1.70;;
28587;SDS011;15787;49.662;10.162;2023-03-13T13:04:05;1.75;;;0.90;;
28587;SDS011;15787;49.662;10.162;2023-03-13T13:06:49;6.70;;;1.77;;
28587;SDS011;15787;49.662;10.162;2023-03-13T13:09:26;5.40;;;1.30;;
28587;SDS011;15787;49.662;10.162;2023-03-13T13:12:01;3.65;;;1.17;;
28587;SDS011;15787;49.662;10.162;2023-03-13T13:17:39;2.30;;;1.10;;
28587;SDS011;15787;49.662;10.162;2023-03-13T13:20:26;7.88;;;1.55;;
28587;SDS011;15787;49.662;10.162;2023-03-13T13:23:21;1.92;;;1.00;;
28587;SDS011;15787;49.662;10.162;2023-03-13T13:32:34;4.95;;;1.00;;
28587;SDS011;15787;49.662;10.162;2023-03-13T13:35:23;5.47;;;1.08;;
28587;SDS011;15787;49.662;10.162;2023-03-13T13:38:19;3.50;;;1.10;;
28587;SDS011;15787;49.662;10.162;2023-03-13T13:41:33;2.25;;;1.00;;
28587;SDS011;15787;49.662;10.162;2023-03-13T13:44:14;1.80;;;1.05;;
28587;SDS011;15787;49.662;10.162;2023-03-13T13:46:54;2.50;;;0.90;;
28587;SDS011;15787;49.662;10.162;2023-03-13T13:49:31;1.50;;;0.80;;
28587;SDS011;15787;49.662;10.162;2023-03-13T13:55:31;2.92;;;0.98;;
28587;SDS011;15787;49.662;10.162;2023-03-13T13:58:16;4.05;;;1.38;;
28587;SDS011;15787;49.662;10.162;2023-03-13T14:00:52;2.90;;;0.90;;
28587;SDS011;15787;49.662;10.162;2023-03-13T14:03:30;3.35;;;0.88;;
28587;SDS011;15787;49.662;10.162;2023-03-13T14:06:12;3.03;;;1.20;;
28587;SDS011;15787;49.662;10.162;2023-03-13T14:08:51;3.20;;;1.00;;
28587;SDS011;15787;49.662;10.162;2023-03-13T14:11:29;2.55;;;0.98;;
28587;SDS011;15787;49.662;10.162;2023-03-13T14:14:07;4.32;;;1.25;;
28587;SDS011;15787;49.662;10.162;2023-03-13T14:16:42;2.85;;;1.30;;
28587;SDS011;15787;49.662;10.162;2023-03-13T14:19:20;3.97;;;1.02;;
28587;SDS011;15787;49.662;10.162;2023-03-13T14:21:58;4.13;;;0.85;;
28587;SDS011;15787;49.662;10.162;2023-03-13T14:24:34;2.38;;;0.93;;
28587;SDS011;15787;49.662;10.162;2023-03-13T14:27:17;4.70;;;0.98;;
28587;SDS011;15787;49.662;10.162;2023-03-13T14:30:02;3.33;;;1.20;;
28587;SDS011;15787;49.662;10.162;2023-03-13T14:32:37;2.60;;;0.80;;
28587;SDS011;15787;49.662;10.162;2023-03-13T14:35:13;3.33;;;0.90;;
28587;SDS011;15787;49.662;10.162;2023-03-13T14:37:48;4.00;;;0.90;;
28587;SDS011;15787;49.662;10.162;2023-03-13T14:40:26;2.47;;;0.70;;
28587;SDS011;15787;49.662;10.162;2023-03-13T14:43:00;3.42;;;1.25;;
28587;SDS011;15787;49.662;10.162;2023-03-13T14:45:34;2.35;;;0.90;;
28587;SDS011;15787;49.662;10.162;2023-03-13T14:48:11;1.38;;;0.80;;
28587;SDS011;15787;49.662;10.162;2023-03-13T14:50:50;1.75;;;1.13;;
28587;SDS011;15787;49.662;10.162;2023-03-13T14:53:54;2.40;;;1.10;;
28587;SDS011;15787;49.662;10.162;2023-03-13T14:56:31;3.13;;;1.10;;
28587;SDS011;15787;49.662;10.162;2023-03-13T14:59:06;2.10;;;0.95;;
28587;SDS011;15787;49.662;10.162;2023-03-13T15:01:46;3.97;;;1.00;;
28587;SDS011;15787;49.662;10.162;2023-03-13T15:04:50;2.58;;;0.80;;
28587;SDS011;15787;49.662;10.162;2023-03-13T15:07:35;2.22;;;0.95;;
28587;SDS011;15787;49.662;10.162;2023-03-13T15:10:17;1.60;;;0.90;;
28587;SDS011;15787;49.662;10.162;2023-03-13T15:12:53;1.55;;;0.90;;
28587;SDS011;15787;49.662;10.162;2023-03-13T15:15:26;2.95;;;0.93;;
28587;SDS011;15787;49.662;10.162;2023-03-13T15:17:59;1.52;;;0.80;;
28587;SDS011;15787;49.662;10.162;2023-03-13T15:20:32;2.90;;;0.90;;
28587;SDS011;15787;49.662;10.162;2023-03-13T15:23:07;2.05;;;1.00;;
28587;SDS011;15787;49.662;10.162;2023-03-13T15:25:45;1.50;;;0.90;;
28587;SDS011;15787;49.662;10.162;2023-03-13T15:28:21;2.53;;;1.42;;
28587;SDS011;15787;49.662;10.162;2023-03-13T15:30:55;2.45;;;0.90;;
28587;SDS011;15787;49.662;10.162;2023-03-13T15:33:28;1.85;;;0.90;;
28587;SDS011;15787;49.662;10.162;2023-03-13T15:36:01;4.90;;;1.30;;
28587;SDS011;15787;49.662;10.162;2023-03-13T15:38:34;2.53;;;0.98;;
28587;SDS011;15787;49.662;10.162;2023-03-13T15:41:07;4.10;;;1.02;;
28587;SDS011;15787;49.662;10.162;2023-03-13T15:43:41;2.60;;;1.20;;
28587;SDS011;15787;49.662;10.162;2023-03-13T15:46:14;3.67;;;0.90;;
28587;SDS011;15787;49.662;10.162;2023-03-13T15:48:47;4.10;;;1.15;;
28587;SDS011;15787;49.662;10.162;2023-03-13T15:51:21;2.38;;;1.33;;
28587;SDS011;15787;49.662;10.162;2023-03-13T15:53:54;1.90;;;1.10;;
28587;SDS011;15787;49.662;10.162;2023-03-13T15:56:28;3.20;;;0.90;;
28587;SDS011;15787;49.662;10.162;2023-03-13T15:59:10;3.15;;;1.10;;
28587;SDS011;15787;49.662;10.162;2023-03-13T16:01:44;3.20;;;1.13;;
28587;SDS011;15787;49.662;10.162;2023-03-13T16:04:21;3.40;;;1.00;;